createdAt,value
2019-05-20T00:01:18.016Z,6.20
2019-05-20T00:03:50.905Z,7.33
2019-05-20T00:06:22.899Z,6.00
2019-05-20T00:08:55.607Z,7.03
2019-05-20T00:11:30.342Z,6.67
2019-05-20T00:14:03.199Z,6.72
2019-05-20T00:16:42.522Z,6.70
2019-05-20T00:19:15.903Z,6.75
2019-05-20T00:21:49.343Z,7.37
2019-05-20T00:24:21.390Z,8.30
2019-05-20T00:26:55.217Z,8.65
2019-05-20T00:29:27.320Z,9.50
2019-05-20T00:32:00.547Z,9.68
2019-05-20T00:34:35.821Z,10.43
2019-05-20T00:37:08.923Z,10.53
2019-05-20T00:39:41.203Z,11.03
2019-05-20T00:42:13.494Z,11.12
2019-05-20T00:44:47.376Z,10.70
2019-05-20T00:47:19.655Z,10.25
2019-05-20T00:49:51.657Z,10.58
2019-05-20T00:52:24.131Z,10.70
2019-05-20T00:54:57.419Z,10.35
2019-05-20T00:57:32.371Z,11.00
2019-05-20T01:00:06.387Z,12.75
2019-05-20T01:02:38.747Z,12.78
2019-05-20T01:05:11.171Z,10.20
2019-05-20T01:07:43.434Z,9.98
2019-05-20T01:10:16.643Z,9.73
2019-05-20T01:12:50.535Z,8.78
2019-05-20T01:15:23.137Z,9.25
2019-05-20T01:17:55.430Z,9.60
2019-05-20T01:20:29.205Z,8.73
2019-05-20T01:23:01.482Z,8.45
2019-05-20T01:25:33.536Z,8.45
2019-05-20T01:28:05.777Z,8.28
2019-05-20T01:30:37.823Z,9.08
2019-05-20T01:33:14.393Z,7.62
2019-05-20T01:35:43.808Z,7.08
2019-05-20T01:38:17.235Z,7.17
2019-05-20T01:40:49.229Z,7.15
2019-05-20T01:43:21.423Z,6.28
2019-05-20T01:45:53.473Z,6.33
2019-05-20T01:48:26.836Z,6.67
2019-05-20T01:50:59.776Z,7.47
2019-05-20T01:53:32.040Z,7.40
2019-05-20T01:56:04.091Z,7.53
2019-05-20T01:58:39.303Z,7.83
2019-05-20T02:01:13.365Z,7.72
2019-05-20T02:03:45.363Z,7.25
2019-05-20T02:06:19.080Z,6.60
2019-05-20T02:08:51.073Z,7.60
2019-05-20T02:11:24.661Z,7.20
2019-05-20T02:14:18.936Z,7.67
2019-05-20T02:16:51.287Z,7.45
2019-05-20T02:19:23.238Z,7.85
2019-05-20T02:21:55.480Z,7.80
2019-05-20T02:24:27.529Z,7.78
2019-05-20T02:27:02.134Z,8.23
2019-05-20T02:29:34.130Z,8.28
2019-05-20T02:32:06.392Z,8.10
2019-05-20T02:34:38.664Z,8.58
2019-05-20T02:37:11.388Z,7.15
2019-05-20T02:39:44.069Z,8.40
2019-05-20T02:42:17.109Z,8.75
2019-05-20T02:44:51.480Z,9.33
2019-05-20T02:47:24.185Z,9.13
2019-05-20T02:49:57.840Z,8.85
2019-05-20T02:52:30.074Z,7.78
2019-05-20T02:55:02.369Z,9.23
2019-05-20T02:57:34.675Z,9.25
2019-05-20T03:00:09.713Z,10.13
2019-05-20T03:02:43.041Z,10.08
2019-05-20T03:05:23.970Z,10.05
2019-05-20T03:07:58.270Z,9.68
2019-05-20T03:10:32.105Z,10.93
2019-05-20T03:13:06.748Z,10.23
2019-05-20T03:15:39.605Z,10.32
2019-05-20T03:18:13.950Z,12.55
2019-05-20T03:20:46.254Z,10.88
2019-05-20T03:23:25.943Z,10.55
2019-05-20T03:25:58.647Z,11.22
2019-05-20T03:28:34.368Z,12.80
2019-05-20T03:31:06.488Z,13.05
2019-05-20T03:33:40.003Z,12.37
2019-05-20T03:36:12.011Z,11.55
2019-05-20T03:38:44.722Z,11.10
2019-05-20T03:41:16.743Z,13.25
2019-05-20T03:43:50.963Z,13.10
2019-05-20T03:46:24.685Z,13.68
2019-05-20T03:48:59.699Z,11.93
2019-05-20T03:51:31.863Z,11.40
2019-05-20T03:54:05.668Z,11.78
2019-05-20T03:56:42.277Z,12.90
2019-05-20T03:59:15.564Z,11.97
2019-05-20T04:01:51.471Z,10.85
2019-05-20T04:04:25.488Z,12.60
2019-05-20T04:06:59.440Z,14.28
2019-05-20T04:09:31.079Z,14.33
2019-05-20T04:12:05.239Z,13.38
2019-05-20T04:17:25.814Z,15.32
2019-05-20T04:20:06.140Z,17.50
2019-05-20T04:22:46.920Z,17.75
2019-05-20T04:25:27.173Z,20.20
2019-05-20T04:28:04.642Z,21.30
2019-05-20T04:30:43.628Z,19.17
2019-05-20T04:33:18.949Z,22.87
2019-05-20T04:35:59.138Z,24.07
2019-05-20T04:38:38.925Z,23.67
2019-05-20T04:41:13.565Z,22.05
2019-05-20T04:43:50.268Z,22.62
2019-05-20T04:46:25.113Z,27.62
2019-05-20T04:48:57.356Z,26.40
2019-05-20T04:51:29.341Z,29.65
2019-05-20T04:54:08.889Z,26.30
2019-05-20T04:56:44.746Z,27.27
2019-05-20T04:59:22.579Z,25.25
2019-05-20T05:02:01.474Z,23.52
2019-05-20T05:04:43.800Z,25.62
2019-05-20T05:07:22.321Z,27.20
2019-05-20T05:10:02.488Z,27.45
2019-05-20T05:12:43.943Z,26.15
2019-05-20T05:15:19.506Z,28.57
2019-05-20T05:18:00.416Z,25.23
2019-05-20T05:20:38.646Z,21.97
2019-05-20T05:23:21.372Z,23.73
2019-05-20T05:26:03.262Z,23.67
2019-05-20T05:28:43.393Z,23.50
2019-05-20T05:31:21.301Z,23.22
2019-05-20T05:34:01.061Z,25.57
2019-05-20T05:36:40.696Z,25.77
2019-05-20T05:39:20.010Z,24.50
2019-05-20T05:42:00.370Z,26.02
2019-05-20T05:44:41.593Z,22.32
2019-05-20T05:47:20.651Z,24.15
2019-05-20T05:50:01.243Z,20.95
2019-05-20T05:52:44.384Z,21.97
2019-05-20T05:55:23.222Z,23.18
2019-05-20T05:58:00.854Z,21.60
2019-05-20T06:00:37.736Z,20.77
2019-05-20T06:03:13.753Z,21.80
2019-05-20T06:06:10.559Z,22.10
2019-05-20T06:08:39.573Z,19.95
2019-05-20T06:11:16.793Z,21.87
2019-05-20T06:13:54.972Z,23.83
2019-05-20T06:16:37.177Z,26.42
2019-05-20T06:19:17.786Z,26.42
2019-05-20T06:22:02.631Z,25.82
2019-05-20T06:24:46.066Z,27.20
2019-05-20T06:27:26.843Z,27.55
2019-05-20T06:30:09.284Z,27.62
2019-05-20T06:32:51.004Z,29.52
2019-05-20T06:35:31.195Z,31.20
2019-05-20T06:38:18.878Z,30.40
2019-05-20T06:40:58.398Z,31.10
2019-05-20T06:43:44.380Z,31.95
2019-05-20T06:46:22.575Z,31.45
2019-05-20T06:48:54.179Z,31.15
2019-05-20T06:54:11.032Z,34.55
2019-05-20T06:56:49.584Z,31.50
2019-05-20T06:59:30.251Z,32.35
2019-05-20T07:02:08.275Z,30.92
2019-05-20T07:04:49.417Z,30.40
2019-05-20T07:10:22.039Z,27.22
2019-05-20T07:13:09.321Z,26.20
2019-05-20T07:15:44.226Z,26.52
2019-05-20T07:18:15.780Z,25.23
2019-05-20T07:20:49.709Z,26.95
2019-05-20T07:23:22.978Z,25.15
2019-05-20T07:25:56.563Z,27.35
2019-05-20T07:28:30.820Z,26.25
2019-05-20T07:33:38.127Z,28.00
2019-05-20T07:36:11.978Z,27.30
2019-05-20T07:38:46.876Z,26.97
2019-05-20T07:41:25.214Z,26.68
2019-05-20T07:43:59.407Z,27.62
2019-05-20T07:49:31.162Z,27.90
2019-05-20T07:52:15.149Z,30.57
2019-05-20T07:54:51.180Z,29.18
2019-05-20T08:00:03.442Z,28.60
2019-05-20T08:02:38.951Z,29.05
2019-05-20T08:05:14.429Z,25.20
2019-05-20T08:07:52.335Z,26.57
2019-05-20T08:10:24.819Z,26.05
2019-05-20T08:12:58.535Z,26.73
2019-05-20T08:15:32.369Z,26.20
2019-05-20T08:18:08.115Z,26.57
2019-05-20T08:20:48.581Z,26.68
2019-05-20T08:23:27.263Z,25.65
2019-05-20T08:25:59.315Z,27.93
2019-05-20T08:28:34.771Z,28.35
2019-05-20T08:31:07.084Z,26.82
2019-05-20T08:33:39.122Z,25.00
2019-05-20T08:36:11.321Z,24.35
2019-05-20T08:38:47.741Z,22.07
2019-05-20T08:41:19.701Z,24.20
2019-05-20T08:43:52.988Z,24.37
2019-05-20T08:46:25.965Z,22.98
2019-05-20T08:48:59.126Z,22.62
2019-05-20T08:51:34.159Z,21.23
2019-05-20T08:54:10.562Z,18.50
2019-05-20T08:56:48.716Z,19.02
2019-05-20T08:59:20.063Z,20.12
2019-05-20T09:04:25.915Z,17.45
2019-05-20T09:06:59.131Z,18.05
2019-05-20T09:09:32.665Z,18.97
2019-05-20T09:12:06.534Z,18.82
2019-05-20T09:14:40.853Z,18.17
2019-05-20T09:17:12.199Z,17.37
2019-05-20T09:19:49.861Z,18.67
2019-05-20T09:22:24.699Z,16.93
2019-05-20T09:24:57.000Z,17.23
2019-05-20T09:27:32.713Z,16.52
2019-05-20T09:30:14.143Z,17.07
2019-05-20T09:32:47.966Z,16.27
2019-05-20T09:35:19.437Z,16.20
2019-05-20T09:37:51.114Z,16.87
2019-05-20T09:40:38.257Z,16.32
2019-05-20T09:43:12.502Z,16.97
2019-05-20T09:45:45.251Z,17.02
2019-05-20T09:48:16.890Z,17.73
2019-05-20T09:50:52.538Z,17.85
2019-05-20T09:53:26.956Z,17.10
2019-05-20T09:56:01.507Z,17.87
2019-05-20T09:58:35.795Z,17.87
2019-05-20T10:03:45.113Z,17.17
2019-05-20T10:06:24.528Z,16.17
2019-05-20T10:08:58.244Z,16.80
2019-05-20T10:11:32.703Z,17.62
2019-05-20T10:14:06.764Z,17.30
2019-05-20T10:16:56.464Z,17.80
2019-05-20T10:19:28.262Z,17.40
2019-05-20T10:22:00.414Z,16.87
2019-05-20T10:24:31.792Z,17.52
2019-05-20T10:27:03.431Z,15.98
2019-05-20T10:29:36.071Z,16.12
2019-05-20T10:34:41.945Z,18.37
2019-05-20T10:37:14.675Z,18.00
2019-05-20T10:39:57.528Z,18.10
2019-05-20T10:42:33.782Z,16.93
2019-05-20T10:45:06.491Z,17.07
2019-05-20T10:47:39.929Z,17.57
2019-05-20T10:50:11.654Z,17.77
2019-05-20T10:52:48.934Z,17.85
2019-05-20T10:55:26.083Z,18.67
2019-05-20T10:57:58.871Z,18.30
2019-05-20T11:00:30.622Z,19.15
2019-05-20T11:03:03.007Z,18.80
2019-05-20T11:05:36.002Z,20.23
2019-05-20T11:08:16.480Z,21.05
2019-05-20T11:10:49.646Z,20.82
2019-05-20T11:13:23.589Z,22.03
2019-05-20T11:15:56.682Z,21.10
2019-05-20T11:18:29.245Z,21.25
2019-05-20T11:21:04.851Z,21.10
2019-05-20T11:23:38.478Z,21.55
2019-05-20T11:26:15.099Z,20.88
2019-05-20T11:28:50.404Z,24.05
2019-05-20T11:31:22.651Z,24.20
2019-05-20T11:33:58.594Z,24.18
2019-05-20T11:36:43.211Z,23.20
2019-05-20T11:39:31.316Z,23.77
2019-05-20T11:41:54.423Z,24.70
2019-05-20T11:44:26.523Z,25.60
2019-05-20T11:46:58.998Z,24.77
2019-05-20T11:49:30.520Z,23.35
2019-05-20T11:52:11.460Z,24.12
2019-05-20T11:54:45.656Z,23.95
2019-05-20T11:57:19.767Z,25.43
2019-05-20T11:59:52.528Z,24.23
2019-05-20T12:02:30.268Z,24.63
2019-05-20T12:05:04.611Z,27.52
2019-05-20T12:07:37.997Z,26.90
2019-05-20T12:10:15.310Z,27.00
2019-05-20T12:12:48.954Z,26.68
2019-05-20T12:15:21.590Z,26.00
2019-05-20T12:17:57.035Z,28.30
2019-05-20T12:20:29.217Z,29.00
2019-05-20T12:23:07.191Z,30.40
2019-05-20T12:25:40.608Z,29.67
2019-05-20T12:28:14.306Z,29.82
2019-05-20T12:30:47.029Z,29.77
2019-05-20T12:33:20.789Z,31.15
2019-05-20T12:35:56.026Z,30.20
2019-05-20T12:38:30.234Z,29.52
2019-05-20T12:41:04.182Z,31.40
2019-05-20T12:43:37.317Z,33.58
2019-05-20T12:46:10.111Z,31.60
2019-05-20T12:48:42.710Z,30.48
2019-05-20T12:51:15.168Z,31.05
2019-05-20T12:53:49.545Z,30.43
2019-05-20T12:56:21.844Z,30.10
2019-05-20T13:01:33.244Z,29.30
2019-05-20T13:04:09.591Z,33.15
2019-05-20T13:06:44.267Z,32.88
2019-05-20T13:09:19.226Z,34.48
2019-05-20T13:11:52.513Z,32.53
2019-05-20T13:14:29.260Z,31.95
2019-05-20T13:17:05.131Z,32.50
2019-05-20T13:19:41.159Z,34.53
2019-05-20T13:22:14.777Z,32.30
2019-05-20T13:24:46.753Z,32.05
2019-05-20T13:27:18.371Z,33.92
2019-05-20T13:29:51.615Z,33.53
2019-05-20T13:32:28.999Z,32.70
2019-05-20T13:35:08.365Z,34.65
2019-05-20T13:37:41.680Z,35.45
2019-05-20T13:40:15.877Z,36.03
2019-05-20T13:42:51.478Z,36.53
2019-05-20T13:45:22.905Z,33.55
2019-05-20T13:47:55.176Z,36.55
2019-05-20T13:50:28.820Z,38.90
2019-05-20T13:53:05.323Z,38.63
2019-05-20T13:55:37.413Z,39.40
2019-05-20T13:58:16.722Z,39.60
2019-05-20T14:00:52.087Z,38.53
2019-05-20T14:03:23.430Z,41.73
2019-05-20T14:06:06.874Z,40.20
2019-05-20T14:08:40.033Z,40.00
2019-05-20T14:11:11.724Z,41.80
2019-05-20T14:13:44.817Z,41.37
2019-05-20T14:16:19.051Z,43.57
2019-05-20T14:18:51.158Z,42.50
2019-05-20T14:21:23.288Z,44.83
2019-05-20T14:23:56.393Z,46.18
2019-05-20T14:26:29.441Z,47.23
2019-05-20T14:29:00.989Z,42.88
2019-05-20T14:31:32.388Z,41.00
2019-05-20T14:34:06.601Z,41.90
2019-05-20T14:36:40.234Z,43.73
2019-05-20T14:39:12.203Z,46.55
2019-05-20T14:41:45.170Z,42.25
2019-05-20T14:44:20.381Z,44.20
2019-05-20T14:46:52.155Z,41.80
2019-05-20T14:49:23.799Z,42.45
2019-05-20T14:51:57.093Z,42.13
2019-05-20T14:56:59.803Z,41.60
2019-05-20T14:59:32.392Z,42.73
2019-05-20T15:02:05.189Z,44.40
2019-05-20T15:04:38.232Z,41.20
2019-05-20T15:09:57.461Z,42.30
2019-05-20T15:12:32.649Z,43.75
2019-05-20T15:15:05.208Z,41.00
2019-05-20T15:17:37.064Z,42.70
2019-05-20T15:20:10.199Z,42.33
2019-05-20T15:22:42.439Z,40.73
2019-05-20T15:25:14.681Z,42.20
2019-05-20T15:27:49.719Z,43.23
2019-05-20T15:30:19.609Z,39.20
2019-05-20T15:32:54.619Z,42.53
2019-05-20T15:35:25.607Z,41.20
2019-05-20T15:37:57.073Z,43.78
2019-05-20T15:40:28.478Z,42.70
2019-05-20T15:43:00.147Z,43.95
2019-05-20T15:45:31.556Z,45.05
2019-05-20T15:48:05.280Z,44.08
2019-05-20T15:50:36.906Z,42.13
2019-05-20T15:53:11.940Z,41.90
2019-05-20T15:55:46.363Z,43.23
2019-05-20T15:58:23.606Z,42.05
2019-05-20T16:00:55.257Z,44.48
2019-05-20T16:03:26.758Z,45.52
2019-05-20T16:05:59.966Z,44.85
2019-05-20T16:11:06.899Z,48.35
2019-05-20T16:13:37.479Z,44.75
2019-05-20T16:16:12.258Z,45.65
2019-05-20T16:18:42.776Z,44.25
2019-05-20T16:21:17.895Z,42.95
2019-05-20T16:23:50.524Z,45.73
2019-05-20T16:26:24.156Z,45.48
2019-05-20T16:28:57.350Z,45.10
2019-05-20T16:31:29.019Z,44.23
2019-05-20T16:34:00.686Z,45.17
2019-05-20T16:36:38.950Z,47.20
2019-05-20T16:39:16.771Z,47.78
2019-05-20T16:41:48.386Z,47.75
2019-05-20T16:44:20.368Z,45.10
2019-05-20T16:46:53.386Z,44.75
2019-05-20T16:49:24.870Z,45.52
2019-05-20T16:51:57.918Z,45.23
2019-05-20T16:54:30.086Z,43.23
2019-05-20T16:57:01.539Z,49.38
2019-05-20T16:59:34.771Z,43.63
2019-05-20T17:02:06.188Z,46.00
2019-05-20T17:04:39.257Z,47.05
2019-05-20T17:07:13.756Z,45.12
2019-05-20T17:09:47.124Z,42.97
2019-05-20T17:12:21.636Z,45.98
2019-05-20T17:14:54.017Z,45.15
2019-05-20T17:17:26.269Z,43.52
2019-05-20T17:19:57.869Z,44.03
2019-05-20T17:22:30.695Z,45.05
2019-05-20T17:25:02.970Z,44.67
2019-05-20T17:27:36.142Z,47.15
2019-05-20T17:30:08.729Z,44.80
2019-05-20T17:32:41.301Z,45.67
2019-05-20T17:35:14.325Z,43.23
2019-05-20T17:37:45.892Z,44.48
2019-05-20T17:40:22.279Z,40.70
2019-05-20T17:42:55.205Z,42.58
2019-05-20T17:45:28.248Z,41.45
2019-05-20T17:47:59.885Z,40.43
2019-05-20T17:50:31.563Z,41.55
2019-05-20T17:53:08.866Z,40.03
2019-05-20T17:55:41.867Z,41.48
2019-05-20T17:58:18.620Z,41.77
2019-05-20T18:00:51.927Z,39.33
2019-05-20T18:03:26.459Z,43.47
2019-05-20T18:05:58.555Z,41.55
2019-05-20T19:34:32.759Z,7.72
